createdAt,value
2019-04-07T00:00:53.466Z,100018.11
2019-04-07T00:03:23.039Z,100013.53
2019-04-07T00:05:51.635Z,100017.98
2019-04-07T00:08:20.535Z,100016.30
2019-04-07T00:10:49.136Z,100015.61
2019-04-07T00:13:18.386Z,100013.91
2019-04-07T00:15:46.967Z,100012.22
2019-04-07T00:18:15.895Z,100004.39
2019-04-07T00:20:44.787Z,100004.77
2019-04-07T00:23:14.129Z,100006.98
2019-04-07T00:25:42.996Z,100005.28
2019-04-07T00:28:11.867Z,100003.75
2019-04-07T00:30:40.493Z,100005.59
2019-04-07T00:33:09.534Z,100007.45
2019-04-07T00:35:38.917Z,100007.63
2019-04-07T00:38:07.493Z,100002.91
2019-04-07T00:40:37.193Z,100002.73
2019-04-07T00:43:06.265Z,100003.20
2019-04-07T00:45:35.395Z,100002.86
2019-04-07T00:48:04.195Z,100008.38
2019-04-07T00:50:33.293Z,100009.16
2019-04-07T00:53:02.104Z,100010.34
2019-04-07T00:55:31.057Z,100001.67
2019-04-07T00:58:00.428Z,100003.71
2019-04-07T01:00:29.117Z,99997.42
2019-04-07T01:02:58.291Z,99999.81
2019-04-07T01:05:35.394Z,99995.55
2019-04-07T01:07:56.410Z,99994.06
2019-04-07T01:10:24.755Z,100000.53
2019-04-07T01:12:54.003Z,99993.72
2019-04-07T01:15:23.046Z,99995.59
2019-04-07T01:17:51.464Z,99996.95
2019-04-07T01:20:20.667Z,100000.53
2019-04-07T01:22:49.417Z,100002.05
2019-04-07T01:25:18.251Z,99992.57
2019-04-07T01:27:47.175Z,99989.01
2019-04-07T01:30:16.120Z,99985.81
2019-04-07T01:32:45.533Z,99987.31
2019-04-07T01:35:14.615Z,99989.05
2019-04-07T01:37:42.961Z,99994.14
2019-04-07T01:40:11.836Z,99988.02
2019-04-07T01:42:56.580Z,99999.44
2019-04-07T01:45:41.291Z,100000.97
2019-04-07T01:48:44.760Z,99993.52
2019-04-07T01:51:35.056Z,99997.08
2019-04-07T01:54:21.820Z,99999.83
2019-04-07T01:57:09.411Z,99992.69
2019-04-07T01:59:56.359Z,99985.41
2019-04-07T02:02:50.023Z,99979.82
2019-04-07T02:05:34.050Z,99983.03
2019-04-07T02:08:09.406Z,99985.26
2019-04-07T02:11:02.853Z,99986.27
2019-04-07T02:13:53.876Z,99989.00
2019-04-07T02:16:45.602Z,99993.23
2019-04-07T02:19:37.066Z,99989.67
2019-04-07T02:22:16.264Z,99986.28
2019-04-07T02:25:07.378Z,99993.05
2019-04-07T02:27:49.553Z,99995.28
2019-04-07T02:30:52.272Z,99992.38
2019-04-07T02:33:52.410Z,99992.89
2019-04-07T02:36:43.211Z,99986.09
2019-04-07T02:39:25.034Z,99988.80
2019-04-07T02:42:13.086Z,99987.94
2019-04-07T02:45:01.392Z,99989.85
2019-04-07T02:47:47.581Z,99987.09
2019-04-07T02:50:24.112Z,99996.53
2019-04-07T02:52:59.553Z,99992.95
2019-04-07T02:55:48.333Z,99991.41
2019-04-07T02:58:38.191Z,99988.30
2019-04-07T03:01:18.043Z,99995.52
2019-04-07T03:04:03.824Z,99989.89
2019-04-07T03:06:58.690Z,99997.34
2019-04-07T03:09:51.849Z,99991.77
2019-04-07T03:12:43.374Z,99987.48
2019-04-07T03:15:34.253Z,99994.61
2019-04-07T03:18:26.539Z,99993.39
2019-04-07T03:21:01.035Z,99991.16
2019-04-07T03:23:57.168Z,99993.02
2019-04-07T03:26:44.488Z,99995.52
2019-04-07T03:29:49.762Z,99999.70
2019-04-07T03:32:35.441Z,99999.05
2019-04-07T03:35:17.278Z,100000.24
2019-04-07T03:38:15.014Z,99993.81
2019-04-07T03:41:09.707Z,99990.60
2019-04-07T03:44:03.323Z,99990.22
2019-04-07T03:46:43.118Z,99993.44
2019-04-07T03:49:37.001Z,99994.29
2019-04-07T03:52:14.088Z,99998.20
2019-04-07T03:55:07.567Z,99987.52
2019-04-07T03:57:58.267Z,99986.70
2019-04-07T04:01:37.132Z,99987.70
2019-04-07T04:04:30.235Z,99985.31
2019-04-07T04:07:30.958Z,99987.13
2019-04-07T04:10:04.220Z,99991.55
2019-04-07T04:12:37.651Z,99993.21
2019-04-07T04:15:16.816Z,99996.27
2019-04-07T04:17:45.723Z,99991.13
2019-04-07T04:20:14.738Z,99990.17
2019-04-07T04:22:43.152Z,99994.16
2019-04-07T04:25:12.623Z,99986.70
2019-04-07T04:27:40.694Z,99987.70
2019-04-07T04:30:10.783Z,99986.19
2019-04-07T04:32:39.427Z,99986.53
2019-04-07T04:35:08.398Z,99989.05
2019-04-07T04:37:44.191Z,99995.33
2019-04-07T04:40:05.981Z,99998.16
2019-04-07T04:42:35.787Z,99996.30
2019-04-07T04:45:04.391Z,100004.09
2019-04-07T04:47:33.918Z,99994.60
2019-04-07T04:50:02.438Z,100004.40
2019-04-07T04:52:31.752Z,100006.10
2019-04-07T04:55:00.601Z,100007.27
2019-04-07T04:57:28.766Z,100008.27
2019-04-07T04:59:58.011Z,100003.89
2019-04-07T05:02:27.534Z,100009.97
2019-04-07T05:04:56.128Z,100009.13
2019-04-07T05:07:24.532Z,100014.55
2019-04-07T05:09:55.341Z,100010.83
2019-04-07T05:12:22.167Z,100007.77
2019-04-07T05:14:51.092Z,100012.38
2019-04-07T05:17:20.011Z,100016.94
2019-04-07T05:19:48.926Z,100009.81
2019-04-07T05:22:17.964Z,100020.70
2019-04-07T05:24:46.783Z,100016.59
2019-04-07T05:27:16.438Z,100018.88
2019-04-07T05:29:44.760Z,100026.84
2019-04-07T05:32:13.613Z,100021.77
2019-04-07T05:34:42.512Z,100027.89
2019-04-07T05:37:11.511Z,100024.36
2019-04-07T05:39:41.113Z,100027.41
2019-04-07T05:42:09.629Z,100028.80
2019-04-07T05:44:38.579Z,100033.56
2019-04-07T05:47:10.847Z,100035.08
2019-04-07T05:49:36.345Z,100033.43
2019-04-07T05:52:06.027Z,100038.00
2019-04-07T05:54:34.187Z,100046.51
2019-04-07T05:57:03.106Z,100043.84
2019-04-07T05:59:32.038Z,100051.03
2019-04-07T06:02:02.577Z,100048.50
2019-04-07T06:04:30.340Z,100052.64
2019-04-07T06:06:59.117Z,100053.49
2019-04-07T06:09:28.086Z,100058.57
2019-04-07T06:11:56.694Z,100053.26
2019-04-07T06:14:25.957Z,100054.27
2019-04-07T06:16:55.716Z,100058.00
2019-04-07T06:19:23.865Z,100059.67
2019-04-07T06:21:52.701Z,100055.56
2019-04-07T06:24:22.438Z,100060.30
2019-04-07T06:26:50.440Z,100056.31
2019-04-07T06:29:19.859Z,100057.30
2019-04-07T06:31:48.307Z,100056.97
2019-04-07T06:34:17.225Z,100060.51
2019-04-07T06:36:48.360Z,100066.88
2019-04-07T06:39:17.384Z,100067.64
2019-04-07T06:41:44.359Z,100066.71
2019-04-07T06:44:16.554Z,100067.54
2019-04-07T06:46:47.988Z,100066.71
2019-04-07T06:49:22.834Z,100068.81
2019-04-07T06:52:10.502Z,100060.53
2019-04-07T06:54:44.899Z,100063.77
2019-04-07T06:57:31.197Z,100064.85
2019-04-07T07:00:20.595Z,100066.98
2019-04-07T07:03:11.777Z,100075.19
2019-04-07T07:05:53.670Z,100070.84
2019-04-07T07:08:48.403Z,100069.87
2019-04-07T07:11:47.139Z,100076.34
2019-04-07T07:14:47.457Z,100071.43
2019-04-07T07:17:36.526Z,100077.66
2019-04-07T07:20:21.762Z,100080.95
2019-04-07T07:23:00.469Z,100088.08
2019-04-07T07:25:29.829Z,100089.66
2019-04-07T07:27:57.063Z,100090.80
2019-04-07T07:30:26.029Z,100098.69
2019-04-07T07:32:55.301Z,100092.08
2019-04-07T07:35:24.367Z,100097.38
2019-04-07T07:37:53.671Z,100089.23
2019-04-07T07:40:22.181Z,100090.56
2019-04-07T07:42:51.097Z,100089.95
2019-04-07T07:45:19.295Z,100095.19
2019-04-07T07:47:51.341Z,100100.09
2019-04-07T07:50:17.850Z,100097.39
2019-04-07T07:52:49.237Z,100097.86
2019-04-07T07:55:15.099Z,100103.16
2019-04-07T07:57:43.884Z,100099.94
2019-04-07T08:00:12.869Z,100101.39
2019-04-07T08:02:41.769Z,100093.44
2019-04-07T08:05:11.435Z,100096.23
2019-04-07T08:07:43.646Z,100094.54
2019-04-07T08:10:09.505Z,100099.62
2019-04-07T08:12:37.535Z,100095.43
2019-04-07T08:15:07.053Z,100097.92
2019-04-07T08:17:35.682Z,100100.97
2019-04-07T08:20:05.590Z,100097.61
2019-04-07T08:22:41.346Z,100099.90
2019-04-07T08:25:02.657Z,100097.42
2019-04-07T08:27:32.273Z,100103.15
2019-04-07T08:30:00.519Z,100104.19
2019-04-07T08:32:31.992Z,100107.79
2019-04-07T08:35:02.729Z,100105.98
2019-04-07T08:37:27.217Z,100107.22
2019-04-07T08:39:57.908Z,100101.05
2019-04-07T08:42:25.253Z,100103.27
2019-04-07T08:44:57.232Z,100108.31
2019-04-07T08:47:23.453Z,100105.44
2019-04-07T08:49:55.370Z,100110.23
2019-04-07T08:52:21.483Z,100108.02
2019-04-07T08:54:52.672Z,100107.00
2019-04-07T08:57:22.587Z,100111.84
2019-04-07T08:59:51.492Z,100107.80
2019-04-07T09:02:22.416Z,100108.41
2019-04-07T09:04:51.290Z,100112.98
2019-04-07T09:07:23.355Z,100110.69
2019-04-07T09:09:51.311Z,100112.74
2019-04-07T09:12:19.739Z,100109.72
2019-04-07T09:14:51.864Z,100108.77
2019-04-07T09:17:44.954Z,100120.50
2019-04-07T09:20:31.350Z,100110.42
2019-04-07T09:23:17.647Z,100113.64
2019-04-07T09:26:05.441Z,100102.83
2019-04-07T09:28:41.958Z,100111.20
2019-04-07T09:31:18.666Z,100107.41
2019-04-07T09:33:56.263Z,100106.87
2019-04-07T09:36:35.309Z,100108.20
2019-04-07T09:39:39.471Z,100115.63
2019-04-07T09:42:10.224Z,100104.62
2019-04-07T09:44:57.475Z,100107.95
2019-04-07T09:47:47.772Z,100109.95
2019-04-07T09:50:36.487Z,100115.31
2019-04-07T09:53:37.061Z,100109.16
2019-04-07T09:56:22.774Z,100105.14
2019-04-07T09:59:16.951Z,100106.30
2019-04-07T10:02:16.785Z,100108.50
2019-04-07T10:05:06.820Z,100115.66
2019-04-07T10:07:56.775Z,100107.98
2019-04-07T10:10:52.645Z,100107.21
2019-04-07T10:13:53.128Z,100108.23
2019-04-07T10:16:41.739Z,100106.33
2019-04-07T10:19:47.925Z,100106.34
2019-04-07T10:22:36.042Z,100109.85
2019-04-07T10:25:29.270Z,100104.50
2019-04-07T10:28:10.561Z,100105.81
2019-04-07T10:30:56.610Z,100106.44
2019-04-07T10:33:49.357Z,100107.16
2019-04-07T10:36:25.287Z,100101.05
2019-04-07T10:39:26.423Z,100106.38
2019-04-07T10:42:13.744Z,100111.73
2019-04-07T10:44:55.184Z,100097.46
2019-04-07T10:47:33.632Z,100097.20
2019-04-07T10:50:18.219Z,100102.80
2019-04-07T10:53:14.339Z,100097.03
2019-04-07T10:55:55.021Z,100112.35
2019-04-07T10:58:46.155Z,100105.23
2019-04-07T11:01:22.203Z,100098.55
2019-04-07T11:04:09.463Z,100102.02
2019-04-07T11:06:59.101Z,100095.79
2019-04-07T11:09:53.082Z,100097.01
2019-04-07T11:12:41.202Z,100094.89
2019-04-07T11:15:37.047Z,100097.15
2019-04-07T11:18:40.311Z,100104.27
2019-04-07T11:21:39.267Z,100087.60
2019-04-07T11:24:17.718Z,100097.34
2019-04-07T11:27:09.259Z,100089.30
2019-04-07T11:29:51.848Z,100092.16
2019-04-07T11:32:41.449Z,100082.58
2019-04-07T11:35:40.187Z,100079.78
2019-04-07T11:38:29.201Z,100082.94
2019-04-07T11:41:23.491Z,100078.38
2019-04-07T11:44:14.995Z,100078.52
2019-04-07T11:46:53.307Z,100084.52
2019-04-07T11:49:49.679Z,100104.28
2019-04-07T11:52:27.836Z,100093.92
2019-04-07T11:55:26.108Z,100083.63
2019-04-07T11:58:11.630Z,100097.11
2019-04-07T12:00:59.258Z,100095.45
2019-04-07T12:03:35.826Z,100088.98
2019-04-07T12:06:28.114Z,100098.27
2019-04-07T12:09:14.468Z,100084.45
2019-04-07T12:12:02.567Z,100097.48
2019-04-07T12:14:53.146Z,100090.50
2019-04-07T12:17:41.486Z,100089.98
2019-04-07T12:20:33.498Z,100104.35
2019-04-07T12:23:20.983Z,100101.23
2019-04-07T12:26:10.340Z,100095.73
2019-04-07T12:29:04.037Z,100096.98
2019-04-07T12:31:51.026Z,100105.44
2019-04-07T12:34:34.979Z,100098.80
2019-04-07T12:37:14.402Z,100108.16
2019-04-07T12:40:05.420Z,100097.86
2019-04-07T12:43:02.515Z,100093.33
2019-04-07T12:45:46.619Z,100103.31
2019-04-07T12:48:43.553Z,100098.91
2019-04-07T12:51:40.625Z,100093.12
2019-04-07T12:54:27.782Z,100106.22
2019-04-07T12:57:17.023Z,100091.45
2019-04-07T12:59:58.281Z,100093.25
2019-04-07T13:02:47.487Z,100094.10
2019-04-07T13:05:35.630Z,100095.89
2019-04-07T13:08:20.057Z,100084.11
2019-04-07T13:11:08.845Z,100086.89
2019-04-07T13:13:50.534Z,100090.14
2019-04-07T13:16:32.189Z,100093.86
2019-04-07T13:19:15.590Z,100087.17
2019-04-07T13:22:21.589Z,100091.08
2019-04-07T13:25:09.097Z,100083.94
2019-04-07T13:28:00.905Z,100084.34
2019-04-07T13:30:46.949Z,100090.94
2019-04-07T13:33:29.581Z,100085.47
2019-04-07T13:36:17.644Z,100080.30
2019-04-07T13:39:00.917Z,100093.42
2019-04-07T13:41:42.964Z,100092.73
2019-04-07T13:44:24.216Z,100098.91
2019-04-07T13:47:10.570Z,100102.78
2019-04-07T13:49:57.350Z,100108.04
2019-04-07T13:52:59.097Z,100092.63
2019-04-07T13:55:45.143Z,100096.54
2019-04-07T13:58:33.198Z,100091.45
2019-04-07T14:01:11.473Z,100086.73
2019-04-07T14:04:01.437Z,100084.44
2019-04-07T14:06:35.111Z,100083.95
2019-04-07T14:09:42.647Z,100078.17
2019-04-07T14:12:34.550Z,100080.22
2019-04-07T14:15:15.883Z,100082.05
2019-04-07T14:18:03.712Z,100075.77
2019-04-07T14:20:47.528Z,100078.30
2019-04-07T14:23:35.396Z,100069.61
2019-04-07T14:26:35.643Z,100079.69
2019-04-07T14:29:28.435Z,100051.33
2019-04-07T14:32:18.843Z,100074.76
2019-04-07T14:35:09.369Z,100090.20
2019-04-07T14:38:03.783Z,100073.98
2019-04-07T14:40:42.203Z,100070.78
2019-04-07T14:43:35.124Z,100070.34
2019-04-07T14:46:12.105Z,100074.02
2019-04-07T14:49:00.024Z,100065.97
2019-04-07T14:51:47.138Z,100067.95
2019-04-07T14:54:43.999Z,100066.20
2019-04-07T14:57:22.435Z,100063.91
2019-04-07T15:00:07.701Z,100066.60
2019-04-07T15:02:36.598Z,100070.05
2019-04-07T15:05:14.876Z,100061.75
2019-04-07T15:08:06.449Z,100063.13
2019-04-07T15:10:41.915Z,100066.34
2019-04-07T15:13:17.109Z,100063.35
2019-04-07T15:15:50.158Z,100059.84
2019-04-07T15:18:17.538Z,100057.20
2019-04-07T15:20:46.292Z,100074.34
2019-04-07T15:23:16.521Z,100068.66
2019-04-07T15:25:47.016Z,100077.66
2019-04-07T15:28:15.361Z,100077.22
2019-04-07T15:30:47.038Z,100072.77
2019-04-07T15:33:16.076Z,100083.30
2019-04-07T15:35:48.693Z,100072.75
2019-04-07T15:38:15.282Z,100077.67
2019-04-07T15:40:44.755Z,100074.06
2019-04-07T15:43:12.604Z,100081.03
2019-04-07T15:45:46.946Z,100079.47
2019-04-07T15:48:17.057Z,100081.66
2019-04-07T15:50:45.493Z,100080.89
2019-04-07T15:53:15.577Z,100079.93
2019-04-07T15:55:50.990Z,100080.38
2019-04-07T15:58:13.513Z,100080.27
2019-04-07T16:00:42.347Z,100074.78
2019-04-07T16:03:14.340Z,100083.19
2019-04-07T16:05:43.970Z,100079.86
2019-04-07T16:08:11.588Z,100083.81
2019-04-07T16:10:39.184Z,100087.87
2019-04-07T16:13:08.902Z,100078.08
2019-04-07T16:15:44.898Z,100082.94
2019-04-07T16:18:12.632Z,100098.39
2019-04-07T16:20:41.640Z,100088.75
2019-04-07T16:23:10.867Z,100086.66
2019-04-07T16:25:40.842Z,100098.62
2019-04-07T16:28:14.466Z,100096.21
2019-04-07T16:30:40.832Z,100094.60
2019-04-07T16:33:10.120Z,100099.80
2019-04-07T16:35:39.833Z,100098.63
2019-04-07T16:38:08.436Z,100107.28
2019-04-07T16:40:40.459Z,100102.67
2019-04-07T16:43:13.343Z,100102.67
2019-04-07T16:45:36.659Z,100112.09
2019-04-07T16:48:06.474Z,100112.41
2019-04-07T16:50:33.569Z,100116.09
2019-04-07T16:53:04.393Z,100122.27
2019-04-07T16:55:33.653Z,100117.16
2019-04-07T16:58:03.329Z,100114.45
2019-04-07T17:00:32.371Z,100117.83
2019-04-07T17:03:01.280Z,100118.52
2019-04-07T17:05:30.150Z,100119.58
2019-04-07T17:07:58.291Z,100121.41
2019-04-07T17:10:30.987Z,100126.05
2019-04-07T17:12:56.851Z,100127.44
2019-04-07T17:15:25.061Z,100124.41
2019-04-07T17:17:54.661Z,100131.60
2019-04-07T17:20:25.903Z,100138.52
2019-04-07T17:22:51.809Z,100136.14
2019-04-07T17:25:21.627Z,100135.67
2019-04-07T17:27:49.833Z,100135.06
2019-04-07T17:30:18.564Z,100135.87
2019-04-07T17:32:50.081Z,100134.67
2019-04-07T17:35:17.519Z,100142.32
2019-04-07T17:37:46.164Z,100142.88
2019-04-07T17:40:15.794Z,100146.95
2019-04-07T17:42:45.063Z,100152.61
2019-04-07T17:45:43.728Z,100153.92
2019-04-07T17:48:37.522Z,100157.73
2019-04-07T17:51:27.564Z,100161.30
2019-04-07T17:54:19.505Z,100166.72
2019-04-07T17:56:49.697Z,100169.41
2019-04-07T17:59:50.401Z,100173.72
2019-04-07T18:02:33.869Z,100169.70
2019-04-07T18:05:10.648Z,100176.19
2019-04-07T18:08:16.575Z,100179.10
2019-04-07T18:10:57.860Z,100181.87
2019-04-07T18:13:42.228Z,100183.66
2019-04-07T18:16:21.319Z,100187.88
2019-04-07T18:19:25.175Z,100188.36
2019-04-07T18:22:10.629Z,100193.73
2019-04-07T18:24:53.551Z,100187.67
2019-04-07T18:27:29.683Z,100195.25
2019-04-07T18:30:23.494Z,100201.09
2019-04-07T18:33:12.937Z,100204.00
2019-04-07T18:36:05.666Z,100206.94
2019-04-07T18:39:10.200Z,100211.59
2019-04-07T18:41:57.221Z,100214.89
2019-04-07T18:44:44.426Z,100223.56
2019-04-07T18:47:30.237Z,100232.31
2019-04-07T18:50:12.963Z,100236.02
2019-04-07T18:52:54.503Z,100236.36
2019-04-07T18:55:46.447Z,100237.14
2019-04-07T18:58:35.724Z,100245.35
2019-04-07T19:01:22.430Z,100245.82
2019-04-07T19:04:12.870Z,100259.65
2019-04-07T19:06:57.945Z,100256.95
2019-04-07T19:09:50.832Z,100258.59
2019-04-07T19:13:02.588Z,100264.83
2019-04-07T19:15:26.101Z,100267.64
2019-04-07T19:18:26.059Z,100268.05
2019-04-07T19:21:13.773Z,100273.77
2019-04-07T19:23:51.397Z,100276.78
2019-04-07T19:26:39.431Z,100273.97
2019-04-07T19:29:33.723Z,100282.42
2019-04-07T19:32:33.397Z,100281.70
2019-04-07T19:35:21.782Z,100286.91
2019-04-07T19:38:12.511Z,100287.00
2019-04-07T19:41:03.327Z,100294.24
2019-04-07T19:43:44.693Z,100285.08
2019-04-07T19:46:35.032Z,100287.89
2019-04-07T19:49:25.850Z,100286.38
2019-04-07T19:52:25.744Z,100288.93
2019-04-07T19:55:25.859Z,100287.67
2019-04-07T19:58:09.783Z,100286.41
2019-04-07T20:01:03.383Z,100288.73
2019-04-07T20:03:49.592Z,100293.57
2019-04-07T20:06:39.809Z,100289.91
2019-04-07T20:09:25.755Z,100295.92
2019-04-07T20:12:04.289Z,100294.25
2019-04-07T20:14:58.571Z,100292.09
2019-04-07T20:17:37.493Z,100284.34
2019-04-07T20:20:19.497Z,100288.27
2019-04-07T20:23:10.661Z,100287.58
2019-04-07T20:25:49.261Z,100287.78
2019-04-07T20:28:30.397Z,100294.17
2019-04-07T20:31:19.447Z,100295.63
2019-04-07T20:33:51.842Z,100295.48
2019-04-07T20:36:48.677Z,100302.20
2019-04-07T20:39:36.595Z,100304.86
2019-04-07T20:42:23.613Z,100297.23
2019-04-07T20:45:18.806Z,100306.16
2019-04-07T20:48:06.009Z,100301.80
2019-04-07T20:51:00.490Z,100299.94
2019-04-07T20:53:40.824Z,100296.27
2019-04-07T20:56:27.160Z,100305.53
2019-04-07T20:59:13.929Z,100310.72
2019-04-07T21:02:08.616Z,100304.13
2019-04-07T21:04:53.140Z,100303.16
2019-04-07T21:07:29.749Z,100310.15
2019-04-07T21:10:24.932Z,100310.36
2019-04-07T21:13:00.319Z,100313.48
2019-04-07T21:15:47.777Z,100313.34
2019-04-07T21:18:35.902Z,100304.19
2019-04-07T21:21:13.881Z,100309.48
2019-04-07T21:24:00.279Z,100314.78
2019-04-07T21:26:49.112Z,100317.84
2019-04-07T21:29:30.247Z,100310.87
2019-04-07T21:32:21.581Z,100314.30
2019-04-07T21:35:10.782Z,100317.36
2019-04-07T21:37:58.324Z,100316.84
2019-04-07T21:40:51.640Z,100321.98
2019-04-07T21:43:55.486Z,100319.60
2019-04-07T21:46:30.999Z,100322.15
2019-04-07T21:49:24.590Z,100317.82
2019-04-07T21:52:04.567Z,100324.68
2019-04-07T21:54:51.444Z,100325.05
2019-04-07T21:57:37.899Z,100321.81
2019-04-07T22:00:34.957Z,100326.06
2019-04-07T22:03:40.885Z,100327.78
2019-04-07T22:06:17.720Z,100321.48
2019-04-07T22:08:52.821Z,100327.46
2019-04-07T22:11:25.364Z,100329.50
2019-04-07T22:13:51.246Z,100323.70
2019-04-07T22:16:22.122Z,100328.84
2019-04-07T22:18:49.111Z,100328.14
2019-04-07T22:21:17.407Z,100332.24
2019-04-07T22:23:46.457Z,100333.25
2019-04-07T22:26:17.655Z,100336.30
2019-04-07T22:28:44.991Z,100337.00
2019-04-07T22:31:15.364Z,100331.54
2019-04-07T22:33:42.603Z,100337.00
2019-04-07T22:36:14.177Z,100331.36
2019-04-07T22:38:41.137Z,100335.13
2019-04-07T22:41:10.078Z,100333.90
2019-04-07T22:43:39.209Z,100336.66
2019-04-07T22:46:16.391Z,100336.64
2019-04-07T22:48:36.466Z,100336.64
2019-04-07T22:51:10.991Z,100334.09
2019-04-07T22:53:34.944Z,100333.77
2019-04-07T22:56:06.363Z,100335.13
2019-04-07T22:58:31.972Z,100335.81
2019-04-07T23:01:00.885Z,100336.98
2019-04-07T23:03:29.810Z,100331.52
2019-04-07T23:05:58.776Z,100333.20
2019-04-07T23:08:28.516Z,100329.66
2019-04-07T23:10:56.607Z,100337.47
2019-04-07T23:13:25.851Z,100336.80
2019-04-07T23:16:05.874Z,100335.28
2019-04-07T23:18:24.203Z,100334.58
2019-04-07T23:20:52.275Z,100337.66
2019-04-07T23:23:21.800Z,100334.39
2019-04-07T23:25:50.327Z,100339.59
2019-04-07T23:28:18.993Z,100333.92
2019-04-07T23:30:47.916Z,100336.61
2019-04-07T23:33:16.843Z,100337.33
2019-04-07T23:35:45.742Z,100334.23
2019-04-07T23:38:15.519Z,100331.81
2019-04-07T23:40:43.571Z,100338.42
2019-04-07T23:43:13.207Z,100330.83
2019-04-07T23:45:41.975Z,100333.88
2019-04-07T23:48:10.468Z,100341.33
2019-04-07T23:50:39.283Z,100344.20
2019-04-07T23:53:44.975Z,100348.44
2019-04-07T23:56:13.488Z,100347.22
2019-04-07T23:58:42.405Z,100348.75
